sensor_id;sensor_type;location;lat;lon;timestamp;temperature;humidity
69464;DHT22;56665;41.106;16.688;2023-10-09T00:02:21;20.61;63.71
69464;DHT22;56665;41.106;16.688;2023-10-09T00:05:33;20.66;63.70
69464;DHT22;56665;41.106;16.688;2023-10-09T00:08:49;20.67;63.23
69464;DHT22;56665;41.106;16.688;2023-10-09T00:11:57;20.70;63.19
69464;DHT22;56665;41.106;16.688;2023-10-09T00:15:01;20.70;63.17
69464;DHT22;56665;41.106;16.688;2023-10-09T00:18:15;20.70;62.98
69464;DHT22;56665;41.106;16.688;2023-10-09T00:21:26;20.80;62.63
69464;DHT22;56665;41.106;16.688;2023-10-09T00:24:38;20.81;62.60
69464;DHT22;56665;41.106;16.688;2023-10-09T00:27:49;20.86;62.30
69464;DHT22;56665;41.106;16.688;2023-10-09T00:30:52;20.87;62.22
69464;DHT22;56665;41.106;16.688;2023-10-09T00:33:56;20.93;62.07
69464;DHT22;56665;41.106;16.688;2023-10-09T00:37:04;20.94;62.03
69464;DHT22;56665;41.106;16.688;2023-10-09T00:40:08;20.98;61.47
69464;DHT22;56665;41.106;16.688;2023-10-09T00:43:23;20.98;61.25
69464;DHT22;56665;41.106;16.688;2023-10-09T00:46:32;21.07;60.57
69464;DHT22;56665;41.106;16.688;2023-10-09T00:49:38;21.11;60.24
69464;DHT22;56665;41.106;16.688;2023-10-09T00:52:48;21.15;60.03
69464;DHT22;56665;41.106;16.688;2023-10-09T00:56:01;21.15;60.11
69464;DHT22;56665;41.106;16.688;2023-10-09T00:59:34;21.19;59.76
69464;DHT22;56665;41.106;16.688;2023-10-09T01:02:39;21.19;59.80
69464;DHT22;56665;41.106;16.688;2023-10-09T01:05:51;21.24;59.79
69464;DHT22;56665;41.106;16.688;2023-10-09T01:09:01;21.21;59.56
69464;DHT22;56665;41.106;16.688;2023-10-09T01:12:15;21.17;59.73
69464;DHT22;56665;41.106;16.688;2023-10-09T01:15:22;21.17;59.13
69464;DHT22;56665;41.106;16.688;2023-10-09T01:18:51;21.12;59.21
69464;DHT22;56665;41.106;16.688;2023-10-09T01:21:55;21.12;59.13
69464;DHT22;56665;41.106;16.688;2023-10-09T01:25:05;21.15;58.61
69464;DHT22;56665;41.106;16.688;2023-10-09T01:28:11;21.17;58.57
69464;DHT22;56665;41.106;16.688;2023-10-09T01:31:18;21.17;58.63
69464;DHT22;56665;41.106;16.688;2023-10-09T01:34:25;21.19;58.11
69464;DHT22;56665;41.106;16.688;2023-10-09T01:37:51;21.22;58.09
69464;DHT22;56665;41.106;16.688;2023-10-09T01:40:55;21.19;57.91
69464;DHT22;56665;41.106;16.688;2023-10-09T01:44:06;21.17;58.51
69464;DHT22;56665;41.106;16.688;2023-10-09T01:47:15;21.12;58.03
69464;DHT22;56665;41.106;16.688;2023-10-09T01:50:22;21.11;58.11
69464;DHT22;56665;41.106;16.688;2023-10-09T01:53:34;21.07;58.21
69464;DHT22;56665;41.106;16.688;2023-10-09T01:56:42;21.04;58.05
69464;DHT22;56665;41.106;16.688;2023-10-09T01:59:50;21.01;58.77
69464;DHT22;56665;41.106;16.688;2023-10-09T02:02:56;20.98;58.52
69464;DHT22;56665;41.106;16.688;2023-10-09T02:06:06;20.94;58.45
69464;DHT22;56665;41.106;16.688;2023-10-09T02:09:28;20.88;58.97
69464;DHT22;56665;41.106;16.688;2023-10-09T02:12:35;20.83;57.97
69464;DHT22;56665;41.106;16.688;2023-10-09T02:15:40;20.80;58.21
69464;DHT22;56665;41.106;16.688;2023-10-09T02:19:04;20.72;58.23
69464;DHT22;56665;41.106;16.688;2023-10-09T02:22:11;20.70;58.77
69464;DHT22;56665;41.106;16.688;2023-10-09T02:25:18;20.66;59.53
69464;DHT22;56665;41.106;16.688;2023-10-09T02:28:25;20.64;59.82
69464;DHT22;56665;41.106;16.688;2023-10-09T02:31:36;20.63;59.95
69464;DHT22;56665;41.106;16.688;2023-10-09T02:34:43;20.60;60.10
69464;DHT22;56665;41.106;16.688;2023-10-09T02:37:49;20.60;60.11
69464;DHT22;56665;41.106;16.688;2023-10-09T02:40:54;20.57;60.65
69464;DHT22;56665;41.106;16.688;2023-10-09T02:44:06;20.56;60.25
69464;DHT22;56665;41.106;16.688;2023-10-09T02:47:14;20.53;60.18
69464;DHT22;56665;41.106;16.688;2023-10-09T02:50:38;20.50;60.01
69464;DHT22;56665;41.106;16.688;2023-10-09T02:53:42;20.46;60.33
69464;DHT22;56665;41.106;16.688;2023-10-09T02:56:51;20.40;60.65
69464;DHT22;56665;41.106;16.688;2023-10-09T03:00:00;20.32;61.15
69464;DHT22;56665;41.106;16.688;2023-10-09T03:03:04;20.28;61.37
69464;DHT22;56665;41.106;16.688;2023-10-09T03:06:10;20.26;61.55
69464;DHT22;56665;41.106;16.688;2023-10-09T03:09:14;20.26;62.06
69464;DHT22;56665;41.106;16.688;2023-10-09T03:12:21;20.22;62.36
69464;DHT22;56665;41.106;16.688;2023-10-09T03:15:30;20.22;62.24
69464;DHT22;56665;41.106;16.688;2023-10-09T03:18:38;20.25;62.39
69464;DHT22;56665;41.106;16.688;2023-10-09T03:21:42;20.22;62.53
69464;DHT22;56665;41.106;16.688;2023-10-09T03:24:47;20.16;62.96
69464;DHT22;56665;41.106;16.688;2023-10-09T03:27:52;20.15;63.11
69464;DHT22;56665;41.106;16.688;2023-10-09T03:30:59;20.08;63.00
69464;DHT22;56665;41.106;16.688;2023-10-09T03:34:07;20.00;62.75
69464;DHT22;56665;41.106;16.688;2023-10-09T03:37:13;19.91;63.21
69464;DHT22;56665;41.106;16.688;2023-10-09T03:40:40;19.87;63.31
69464;DHT22;56665;41.106;16.688;2023-10-09T03:43:47;19.79;63.58
69464;DHT22;56665;41.106;16.688;2023-10-09T03:46:50;19.77;63.80
69464;DHT22;56665;41.106;16.688;2023-10-09T03:49:56;19.78;63.84
69464;DHT22;56665;41.106;16.688;2023-10-09T03:53:02;19.79;64.08
69464;DHT22;56665;41.106;16.688;2023-10-09T03:56:07;19.82;64.30
69464;DHT22;56665;41.106;16.688;2023-10-09T03:59:19;19.82;64.59
69464;DHT22;56665;41.106;16.688;2023-10-09T04:02:23;19.81;64.20
69464;DHT22;56665;41.106;16.688;2023-10-09T04:05:27;19.73;64.49
69464;DHT22;56665;41.106;16.688;2023-10-09T04:08:32;19.67;64.51
69464;DHT22;56665;41.106;16.688;2023-10-09T04:11:37;19.58;64.93
69464;DHT22;56665;41.106;16.688;2023-10-09T04:14:47;19.47;64.68
69464;DHT22;56665;41.106;16.688;2023-10-09T04:17:57;19.42;64.89
69464;DHT22;56665;41.106;16.688;2023-10-09T04:21:02;19.39;64.95
69464;DHT22;56665;41.106;16.688;2023-10-09T04:24:34;19.32;64.84
69464;DHT22;56665;41.106;16.688;2023-10-09T04:27:58;19.30;64.89
69464;DHT22;56665;41.106;16.688;2023-10-09T04:31:22;19.26;65.09
69464;DHT22;56665;41.106;16.688;2023-10-09T04:34:35;19.29;65.11
69464;DHT22;56665;41.106;16.688;2023-10-09T04:37:39;19.26;65.26
69464;DHT22;56665;41.106;16.688;2023-10-09T04:40:42;19.26;65.06
69464;DHT22;56665;41.106;16.688;2023-10-09T04:43:55;19.29;64.68
69464;DHT22;56665;41.106;16.688;2023-10-09T04:47:18;19.29;64.29
69464;DHT22;56665;41.106;16.688;2023-10-09T04:50:22;19.29;63.98
69464;DHT22;56665;41.106;16.688;2023-10-09T04:53:34;19.35;64.22
69464;DHT22;56665;41.106;16.688;2023-10-09T04:56:47;19.40;64.12
69464;DHT22;56665;41.106;16.688;2023-10-09T04:59:57;19.43;63.57
69464;DHT22;56665;41.106;16.688;2023-10-09T05:03:02;19.49;63.22
69464;DHT22;56665;41.106;16.688;2023-10-09T05:06:14;19.75;64.52
69464;DHT22;56665;41.106;16.688;2023-10-09T05:09:25;19.77;62.62
69464;DHT22;56665;41.106;16.688;2023-10-09T05:12:30;19.75;62.61
69464;DHT22;56665;41.106;16.688;2023-10-09T05:15:34;19.78;62.58
69464;DHT22;56665;41.106;16.688;2023-10-09T05:18:38;19.77;62.57
69464;DHT22;56665;41.106;16.688;2023-10-09T05:21:42;19.79;62.50
69464;DHT22;56665;41.106;16.688;2023-10-09T05:24:45;19.79;62.73
69464;DHT22;56665;41.106;16.688;2023-10-09T05:27:50;19.82;63.00
69464;DHT22;56665;41.106;16.688;2023-10-09T05:30:57;19.82;63.94
69464;DHT22;56665;41.106;16.688;2023-10-09T05:34:12;20.02;65.30
69464;DHT22;56665;41.106;16.688;2023-10-09T05:37:23;20.15;64.49
69464;DHT22;56665;41.106;16.688;2023-10-09T05:40:52;20.25;63.28
69464;DHT22;56665;41.106;16.688;2023-10-09T05:43:57;20.33;63.23
69464;DHT22;56665;41.106;16.688;2023-10-09T05:47:39;20.43;62.43
69464;DHT22;56665;41.106;16.688;2023-10-09T05:50:56;20.64;62.86
69464;DHT22;56665;41.106;16.688;2023-10-09T05:54:12;20.81;62.02
69464;DHT22;56665;41.106;16.688;2023-10-09T05:57:36;21.00;61.75
69464;DHT22;56665;41.106;16.688;2023-10-09T06:00:58;21.11;60.93
69464;DHT22;56665;41.106;16.688;2023-10-09T06:04:21;21.31;60.43
69464;DHT22;56665;41.106;16.688;2023-10-09T06:07:37;21.51;60.93
69464;DHT22;56665;41.106;16.688;2023-10-09T06:11:02;21.69;60.50
69464;DHT22;56665;41.106;16.688;2023-10-09T06:14:30;21.88;59.73
69464;DHT22;56665;41.106;16.688;2023-10-09T06:17:33;21.96;59.87
69464;DHT22;56665;41.106;16.688;2023-10-09T06:20:48;22.09;60.24
69464;DHT22;56665;41.106;16.688;2023-10-09T06:24:12;22.24;60.04
69464;DHT22;56665;41.106;16.688;2023-10-09T06:27:16;22.50;60.05
69464;DHT22;56665;41.106;16.688;2023-10-09T06:30:35;22.75;59.57
69464;DHT22;56665;41.106;16.688;2023-10-09T06:33:39;22.94;59.20
69464;DHT22;56665;41.106;16.688;2023-10-09T06:37:02;23.11;59.24
69464;DHT22;56665;41.106;16.688;2023-10-09T06:40:20;23.29;59.26
69464;DHT22;56665;41.106;16.688;2023-10-09T06:43:48;23.51;59.28
69464;DHT22;56665;41.106;16.688;2023-10-09T06:46:57;23.78;58.95
69464;DHT22;56665;41.106;16.688;2023-10-09T06:50:03;23.94;59.11
69464;DHT22;56665;41.106;16.688;2023-10-09T06:53:25;24.19;58.97
69464;DHT22;56665;41.106;16.688;2023-10-09T06:56:49;24.41;58.91
69464;DHT22;56665;41.106;16.688;2023-10-09T06:59:55;24.57;59.09
69464;DHT22;56665;41.106;16.688;2023-10-09T07:03:17;24.77;59.20
69464;DHT22;56665;41.106;16.688;2023-10-09T07:06:23;25.01;59.28
69464;DHT22;56665;41.106;16.688;2023-10-09T07:09:32;25.20;59.25
69464;DHT22;56665;41.106;16.688;2023-10-09T07:13:08;25.45;59.25
69464;DHT22;56665;41.106;16.688;2023-10-09T07:16:12;25.59;59.21
69464;DHT22;56665;41.106;16.688;2023-10-09T07:19:31;25.89;59.24
69464;DHT22;56665;41.106;16.688;2023-10-09T07:22:37;26.00;59.53
69464;DHT22;56665;41.106;16.688;2023-10-09T07:26:08;26.24;60.01
69464;DHT22;56665;41.106;16.688;2023-10-09T07:29:40;26.44;61.02
69464;DHT22;56665;41.106;16.688;2023-10-09T07:32:53;26.57;61.90
69464;DHT22;56665;41.106;16.688;2023-10-09T07:36:00;26.77;62.14
69464;DHT22;56665;41.106;16.688;2023-10-09T07:39:09;26.87;62.35
69464;DHT22;56665;41.106;16.688;2023-10-09T07:42:20;27.11;61.64
69464;DHT22;56665;41.106;16.688;2023-10-09T07:45:37;27.26;62.25
69464;DHT22;56665;41.106;16.688;2023-10-09T07:48:41;27.43;62.73
69464;DHT22;56665;41.106;16.688;2023-10-09T07:51:56;27.60;62.38
69464;DHT22;56665;41.106;16.688;2023-10-09T07:55:02;27.76;62.13
69464;DHT22;56665;41.106;16.688;2023-10-09T07:58:07;27.94;61.80
69464;DHT22;56665;41.106;16.688;2023-10-09T08:01:15;28.17;61.22
69464;DHT22;56665;41.106;16.688;2023-10-09T08:04:23;28.40;60.51
69464;DHT22;56665;41.106;16.688;2023-10-09T08:07:46;28.46;60.28
69464;DHT22;56665;41.106;16.688;2023-10-09T08:11:07;28.72;59.67
69464;DHT22;56665;41.106;16.688;2023-10-09T08:14:34;28.94;59.17
69464;DHT22;56665;41.106;16.688;2023-10-09T08:17:38;29.12;58.67
69464;DHT22;56665;41.106;16.688;2023-10-09T08:20:42;29.34;58.20
69464;DHT22;56665;41.106;16.688;2023-10-09T08:24:15;29.49;57.56
69464;DHT22;56665;41.106;16.688;2023-10-09T08:27:40;29.68;57.16
69464;DHT22;56665;41.106;16.688;2023-10-09T08:30:50;29.79;56.89
69464;DHT22;56665;41.106;16.688;2023-10-09T08:33:57;29.92;56.27
69464;DHT22;56665;41.106;16.688;2023-10-09T08:37:01;30.05;56.02
69464;DHT22;56665;41.106;16.688;2023-10-09T08:40:07;30.19;55.57
69464;DHT22;56665;41.106;16.688;2023-10-09T08:43:16;30.28;54.85
69464;DHT22;56665;41.106;16.688;2023-10-09T08:46:27;30.34;54.30
69464;DHT22;56665;41.106;16.688;2023-10-09T08:49:34;30.31;54.03
69464;DHT22;56665;41.106;16.688;2023-10-09T08:52:39;30.37;53.88
69464;DHT22;56665;41.106;16.688;2023-10-09T08:55:43;30.48;53.15
69464;DHT22;56665;41.106;16.688;2023-10-09T09:01:57;30.89;50.92
69464;DHT22;56665;41.106;16.688;2023-10-09T09:05:21;31.11;50.90
69464;DHT22;56665;41.106;16.688;2023-10-09T09:08:30;31.42;50.41
69464;DHT22;56665;41.106;16.688;2023-10-09T09:11:40;31.56;50.34
69464;DHT22;56665;41.106;16.688;2023-10-09T09:14:52;31.66;49.68
69464;DHT22;56665;41.106;16.688;2023-10-09T09:18:07;31.72;49.12
69464;DHT22;56665;41.106;16.688;2023-10-09T09:21:18;31.81;49.02
69464;DHT22;56665;41.106;16.688;2023-10-09T09:24:25;31.81;49.35
69464;DHT22;56665;41.106;16.688;2023-10-09T09:27:47;31.95;48.81
69464;DHT22;56665;41.106;16.688;2023-10-09T09:31:09;32.04;48.82
69464;DHT22;56665;41.106;16.688;2023-10-09T09:34:17;32.21;48.26
69464;DHT22;56665;41.106;16.688;2023-10-09T09:37:25;32.28;48.17
69464;DHT22;56665;41.106;16.688;2023-10-09T09:40:32;32.39;47.64
69464;DHT22;56665;41.106;16.688;2023-10-09T09:43:46;32.39;48.17
69464;DHT22;56665;41.106;16.688;2023-10-09T09:46:49;32.27;48.05
69464;DHT22;56665;41.106;16.688;2023-10-09T09:49:57;32.25;47.82
69464;DHT22;56665;41.106;16.688;2023-10-09T09:53:04;32.32;47.49
69464;DHT22;56665;41.106;16.688;2023-10-09T09:56:13;32.28;47.01
69464;DHT22;56665;41.106;16.688;2023-10-09T09:59:24;32.39;46.97
69464;DHT22;56665;41.106;16.688;2023-10-09T10:02:35;32.55;46.15
69464;DHT22;56665;41.106;16.688;2023-10-09T10:05:42;32.58;46.13
69464;DHT22;56665;41.106;16.688;2023-10-09T10:08:51;32.45;46.08
69464;DHT22;56665;41.106;16.688;2023-10-09T10:11:58;32.49;44.03
69464;DHT22;56665;41.106;16.688;2023-10-09T10:15:09;32.46;43.29
69464;DHT22;56665;41.106;16.688;2023-10-09T10:18:17;32.32;43.39
69464;DHT22;56665;41.106;16.688;2023-10-09T10:21:23;32.18;43.69
69464;DHT22;56665;41.106;16.688;2023-10-09T10:28:17;32.08;46.58
69464;DHT22;56665;41.106;16.688;2023-10-09T10:31:53;31.76;49.42
69464;DHT22;56665;41.106;16.688;2023-10-09T10:34:59;31.54;50.42
69464;DHT22;56665;41.106;16.688;2023-10-09T10:38:31;31.43;51.05
69464;DHT22;56665;41.106;16.688;2023-10-09T10:41:40;31.40;50.77
69464;DHT22;56665;41.106;16.688;2023-10-09T10:44:57;31.47;50.62
69464;DHT22;56665;41.106;16.688;2023-10-09T10:48:02;31.53;50.05
69464;DHT22;56665;41.106;16.688;2023-10-09T10:51:13;31.40;50.11
69464;DHT22;56665;41.106;16.688;2023-10-09T10:54:25;31.36;50.14
69464;DHT22;56665;41.106;16.688;2023-10-09T10:57:35;31.32;50.04
69464;DHT22;56665;41.106;16.688;2023-10-09T11:01:04;31.39;50.05
69464;DHT22;56665;41.106;16.688;2023-10-09T11:04:22;31.23;49.59
69464;DHT22;56665;41.106;16.688;2023-10-09T11:07:42;30.96;50.34
69464;DHT22;56665;41.106;16.688;2023-10-09T11:10:50;30.91;50.24
69464;DHT22;56665;41.106;16.688;2023-10-09T11:14:12;30.71;49.92
69464;DHT22;56665;41.106;16.688;2023-10-09T11:17:19;30.81;49.66
69464;DHT22;56665;41.106;16.688;2023-10-09T11:20:28;30.77;49.70
69464;DHT22;56665;41.106;16.688;2023-10-09T11:23:36;30.74;49.17
69464;DHT22;56665;41.106;16.688;2023-10-09T11:26:50;30.71;50.14
69464;DHT22;56665;41.106;16.688;2023-10-09T11:30:00;30.56;50.50
69464;DHT22;56665;41.106;16.688;2023-10-09T11:33:15;30.41;50.12
69464;DHT22;56665;41.106;16.688;2023-10-09T11:36:23;30.28;50.21
69464;DHT22;56665;41.106;16.688;2023-10-09T11:39:35;30.23;50.65
69464;DHT22;56665;41.106;16.688;2023-10-09T11:42:54;30.30;49.99
69464;DHT22;56665;41.106;16.688;2023-10-09T11:46:10;30.16;50.57
69464;DHT22;56665;41.106;16.688;2023-10-09T11:49:54;30.12;50.66
69464;DHT22;56665;41.106;16.688;2023-10-09T11:53:06;30.03;51.21
69464;DHT22;56665;41.106;16.688;2023-10-09T11:56:24;29.96;50.95
69464;DHT22;56665;41.106;16.688;2023-10-09T11:59:31;29.99;50.76
69464;DHT22;56665;41.106;16.688;2023-10-09T12:02:41;29.86;50.91
69464;DHT22;56665;41.106;16.688;2023-10-09T12:05:47;29.68;50.76
69464;DHT22;56665;41.106;16.688;2023-10-09T12:08:51;29.61;51.25
69464;DHT22;56665;41.106;16.688;2023-10-09T12:11:57;29.65;51.55
69464;DHT22;56665;41.106;16.688;2023-10-09T12:15:04;29.88;51.11
69464;DHT22;56665;41.106;16.688;2023-10-09T12:18:08;29.95;50.94
69464;DHT22;56665;41.106;16.688;2023-10-09T12:21:22;29.86;50.55
69464;DHT22;56665;41.106;16.688;2023-10-09T12:24:27;29.76;50.72
69464;DHT22;56665;41.106;16.688;2023-10-09T12:27:32;29.65;50.75
69464;DHT22;56665;41.106;16.688;2023-10-09T12:30:36;29.76;50.40
69464;DHT22;56665;41.106;16.688;2023-10-09T12:33:42;29.69;50.18
69464;DHT22;56665;41.106;16.688;2023-10-09T12:36:46;29.69;50.57
69464;DHT22;56665;41.106;16.688;2023-10-09T12:39:50;29.78;50.34
69464;DHT22;56665;41.106;16.688;2023-10-09T12:42:59;29.72;50.16
69464;DHT22;56665;41.106;16.688;2023-10-09T12:46:07;29.68;50.89
69464;DHT22;56665;41.106;16.688;2023-10-09T12:49:11;29.72;51.00
69464;DHT22;56665;41.106;16.688;2023-10-09T12:52:14;29.81;50.69
69464;DHT22;56665;41.106;16.688;2023-10-09T12:55:21;29.58;51.06
69464;DHT22;56665;41.106;16.688;2023-10-09T12:58:25;29.54;51.53
69464;DHT22;56665;41.106;16.688;2023-10-09T13:01:31;29.47;52.32
69464;DHT22;56665;41.106;16.688;2023-10-09T13:04:45;29.38;52.33
69464;DHT22;56665;41.106;16.688;2023-10-09T13:07:49;29.28;52.22
69464;DHT22;56665;41.106;16.688;2023-10-09T13:10:53;29.20;52.44
69464;DHT22;56665;41.106;16.688;2023-10-09T13:14:03;29.21;52.30
69464;DHT22;56665;41.106;16.688;2023-10-09T13:17:20;29.26;52.14
69464;DHT22;56665;41.106;16.688;2023-10-09T13:20:25;29.24;51.62
69464;DHT22;56665;41.106;16.688;2023-10-09T13:23:31;29.23;52.48
69464;DHT22;56665;41.106;16.688;2023-10-09T13:26:43;29.14;53.18
69464;DHT22;56665;41.106;16.688;2023-10-09T13:29:54;29.14;53.09
69464;DHT22;56665;41.106;16.688;2023-10-09T13:33:08;29.04;53.87
69464;DHT22;56665;41.106;16.688;2023-10-09T13:36:20;28.96;54.51
69464;DHT22;56665;41.106;16.688;2023-10-09T13:39:30;28.86;54.85
69464;DHT22;56665;41.106;16.688;2023-10-09T13:42:40;28.73;54.78
69464;DHT22;56665;41.106;16.688;2023-10-09T13:45:45;28.79;54.88
69464;DHT22;56665;41.106;16.688;2023-10-09T13:48:53;28.82;54.55
69464;DHT22;56665;41.106;16.688;2023-10-09T13:52:01;28.73;54.71
69464;DHT22;56665;41.106;16.688;2023-10-09T13:55:06;28.59;55.57
69464;DHT22;56665;41.106;16.688;2023-10-09T13:58:19;28.49;56.02
69464;DHT22;56665;41.106;16.688;2023-10-09T14:01:24;28.62;55.78
69464;DHT22;56665;41.106;16.688;2023-10-09T14:04:30;28.69;55.18
69464;DHT22;56665;41.106;16.688;2023-10-09T14:07:34;28.66;55.71
69464;DHT22;56665;41.106;16.688;2023-10-09T14:10:38;28.66;55.66
69464;DHT22;56665;41.106;16.688;2023-10-09T14:13:43;28.50;55.80
69464;DHT22;56665;41.106;16.688;2023-10-09T14:16:47;28.45;55.83
69464;DHT22;56665;41.106;16.688;2023-10-09T14:19:52;28.46;56.18
69464;DHT22;56665;41.106;16.688;2023-10-09T14:22:56;28.33;56.31
69464;DHT22;56665;41.106;16.688;2023-10-09T14:25:59;28.27;56.65
69464;DHT22;56665;41.106;16.688;2023-10-09T14:29:04;28.24;57.26
69464;DHT22;56665;41.106;16.688;2023-10-09T14:32:10;28.08;57.61
69464;DHT22;56665;41.106;16.688;2023-10-09T14:35:17;28.01;57.33
69464;DHT22;56665;41.106;16.688;2023-10-09T14:38:24;28.00;57.01
69464;DHT22;56665;41.106;16.688;2023-10-09T14:41:30;27.88;56.93
69464;DHT22;56665;41.106;16.688;2023-10-09T14:44:37;27.80;57.30
69464;DHT22;56665;41.106;16.688;2023-10-09T14:47:44;27.77;58.25
69464;DHT22;56665;41.106;16.688;2023-10-09T14:50:50;27.64;58.81
69464;DHT22;56665;41.106;16.688;2023-10-09T14:53:58;27.60;59.58
69464;DHT22;56665;41.106;16.688;2023-10-09T14:57:02;27.47;59.30
69464;DHT22;56665;41.106;16.688;2023-10-09T15:00:15;27.39;58.53
69464;DHT22;56665;41.106;16.688;2023-10-09T15:03:26;27.27;59.11
69464;DHT22;56665;41.106;16.688;2023-10-09T15:06:31;27.20;59.71
69464;DHT22;56665;41.106;16.688;2023-10-09T15:09:36;27.12;59.86
69464;DHT22;56665;41.106;16.688;2023-10-09T15:12:43;26.99;60.50
69464;DHT22;56665;41.106;16.688;2023-10-09T15:15:50;26.89;61.11
69464;DHT22;56665;41.106;16.688;2023-10-09T15:18:54;26.77;61.49
69464;DHT22;56665;41.106;16.688;2023-10-09T15:22:06;26.69;61.62
69464;DHT22;56665;41.106;16.688;2023-10-09T15:25:13;26.60;61.97
69464;DHT22;56665;41.106;16.688;2023-10-09T15:28:22;26.50;62.39
69464;DHT22;56665;41.106;16.688;2023-10-09T15:31:26;26.48;62.94
69464;DHT22;56665;41.106;16.688;2023-10-09T15:34:32;26.41;63.13
69464;DHT22;56665;41.106;16.688;2023-10-09T15:37:38;26.36;63.51
69464;DHT22;56665;41.106;16.688;2023-10-09T15:40:44;26.36;63.88
69464;DHT22;56665;41.106;16.688;2023-10-09T15:43:50;26.24;64.50
69464;DHT22;56665;41.106;16.688;2023-10-09T15:46:55;26.19;64.89
69464;DHT22;56665;41.106;16.688;2023-10-09T15:50:03;26.07;65.91
69464;DHT22;56665;41.106;16.688;2023-10-09T15:53:07;26.02;66.01
69464;DHT22;56665;41.106;16.688;2023-10-09T15:56:12;25.92;66.08
69464;DHT22;56665;41.106;16.688;2023-10-09T15:59:16;25.83;66.34
69464;DHT22;56665;41.106;16.688;2023-10-09T16:02:20;25.73;66.69
69464;DHT22;56665;41.106;16.688;2023-10-09T16:05:24;25.62;67.06
69464;DHT22;56665;41.106;16.688;2023-10-09T16:08:30;25.58;66.77
69464;DHT22;56665;41.106;16.688;2023-10-09T16:11:35;25.49;67.86
69464;DHT22;56665;41.106;16.688;2023-10-09T16:14:39;25.46;67.93
69464;DHT22;56665;41.106;16.688;2023-10-09T16:17:48;25.38;68.27
69464;DHT22;56665;41.106;16.688;2023-10-09T16:20:52;25.35;68.47
69464;DHT22;56665;41.106;16.688;2023-10-09T16:23:57;25.28;69.32
69464;DHT22;56665;41.106;16.688;2023-10-09T16:27:02;25.18;69.97
69464;DHT22;56665;41.106;16.688;2023-10-09T16:30:08;25.15;70.31
69464;DHT22;56665;41.106;16.688;2023-10-09T16:33:16;25.11;70.68
69464;DHT22;56665;41.106;16.688;2023-10-09T16:36:20;25.07;70.32
69464;DHT22;56665;41.106;16.688;2023-10-09T16:39:24;25.06;71.14
69464;DHT22;56665;41.106;16.688;2023-10-09T16:42:28;25.08;71.43
69464;DHT22;56665;41.106;16.688;2023-10-09T16:45:35;25.01;70.67
69464;DHT22;56665;41.106;16.688;2023-10-09T16:48:39;25.03;71.06
69464;DHT22;56665;41.106;16.688;2023-10-09T16:51:43;24.97;71.27
69464;DHT22;56665;41.106;16.688;2023-10-09T16:54:48;24.99;71.16
69464;DHT22;56665;41.106;16.688;2023-10-09T16:57:53;24.93;71.43
69464;DHT22;56665;41.106;16.688;2023-10-09T17:00:59;24.88;71.46
69464;DHT22;56665;41.106;16.688;2023-10-09T17:04:04;24.91;71.16
69464;DHT22;56665;41.106;16.688;2023-10-09T17:07:08;24.88;71.20
69464;DHT22;56665;41.106;16.688;2023-10-09T17:10:17;24.91;70.70
69464;DHT22;56665;41.106;16.688;2023-10-09T17:13:24;24.87;70.74
69464;DHT22;56665;41.106;16.688;2023-10-09T17:16:29;24.84;71.04
69464;DHT22;56665;41.106;16.688;2023-10-09T17:19:33;24.82;70.93
69464;DHT22;56665;41.106;16.688;2023-10-09T17:22:41;24.86;70.68
69464;DHT22;56665;41.106;16.688;2023-10-09T17:25:46;24.90;70.37
69464;DHT22;56665;41.106;16.688;2023-10-09T17:28:51;24.87;69.97
69464;DHT22;56665;41.106;16.688;2023-10-09T17:31:55;24.76;69.95
69464;DHT22;56665;41.106;16.688;2023-10-09T17:34:59;24.66;69.79
69464;DHT22;56665;41.106;16.688;2023-10-09T17:38:03;24.59;69.77
69464;DHT22;56665;41.106;16.688;2023-10-09T17:41:07;24.55;69.29
69464;DHT22;56665;41.106;16.688;2023-10-09T17:44:12;24.45;68.58
69464;DHT22;56665;41.106;16.688;2023-10-09T17:47:18;24.39;67.96
69464;DHT22;56665;41.106;16.688;2023-10-09T17:50:24;24.32;66.86
69464;DHT22;56665;41.106;16.688;2023-10-09T17:53:28;24.29;66.12
69464;DHT22;56665;41.106;16.688;2023-10-09T17:56:32;24.26;65.82
69464;DHT22;56665;41.106;16.688;2023-10-09T17:59:36;24.26;65.45
69464;DHT22;56665;41.106;16.688;2023-10-09T18:02:41;24.26;64.89
69464;DHT22;56665;41.106;16.688;2023-10-09T18:05:44;24.23;64.50
69464;DHT22;56665;41.106;16.688;2023-10-09T18:08:48;24.14;64.65
69464;DHT22;56665;41.106;16.688;2023-10-09T18:11:52;24.09;64.47
69464;DHT22;56665;41.106;16.688;2023-10-09T18:14:59;24.01;64.17
69464;DHT22;56665;41.106;16.688;2023-10-09T18:18:08;23.93;64.50
69464;DHT22;56665;41.106;16.688;2023-10-09T18:21:15;23.88;64.42
69464;DHT22;56665;41.106;16.688;2023-10-09T18:24:22;23.93;63.82
69464;DHT22;56665;41.106;16.688;2023-10-09T18:27:26;23.93;62.85
69464;DHT22;56665;41.106;16.688;2023-10-09T18:30:35;23.90;62.44
69464;DHT22;56665;41.106;16.688;2023-10-09T18:33:39;23.93;62.22
69464;DHT22;56665;41.106;16.688;2023-10-09T18:36:44;23.90;61.84
69464;DHT22;56665;41.106;16.688;2023-10-09T18:39:49;23.88;61.59
69464;DHT22;56665;41.106;16.688;2023-10-09T18:42:53;23.83;61.63
69464;DHT22;56665;41.106;16.688;2023-10-09T18:45:56;23.81;62.56
69464;DHT22;56665;41.106;16.688;2023-10-09T18:49:00;23.88;61.16
69464;DHT22;56665;41.106;16.688;2023-10-09T18:52:04;23.87;60.77
69464;DHT22;56665;41.106;16.688;2023-10-09T18:55:12;23.65;61.17
69464;DHT22;56665;41.106;16.688;2023-10-09T18:58:16;23.47;61.15
69464;DHT22;56665;41.106;16.688;2023-10-09T19:01:22;23.37;60.91
69464;DHT22;56665;41.106;16.688;2023-10-09T19:04:26;23.33;61.05
69464;DHT22;56665;41.106;16.688;2023-10-09T19:07:29;23.20;61.46
69464;DHT22;56665;41.106;16.688;2023-10-09T19:10:34;23.13;60.99
69464;DHT22;56665;41.106;16.688;2023-10-09T19:13:38;23.11;61.19
69464;DHT22;56665;41.106;16.688;2023-10-09T19:16:44;23.06;60.43
69464;DHT22;56665;41.106;16.688;2023-10-09T19:19:50;23.00;60.33
69464;DHT22;56665;41.106;16.688;2023-10-09T19:22:53;23.00;60.12
69464;DHT22;56665;41.106;16.688;2023-10-09T19:25:58;22.98;59.96
69464;DHT22;56665;41.106;16.688;2023-10-09T19:29:02;22.99;59.79
69464;DHT22;56665;41.106;16.688;2023-10-09T19:32:05;22.96;59.53
69464;DHT22;56665;41.106;16.688;2023-10-09T19:35:11;22.95;59.90
69464;DHT22;56665;41.106;16.688;2023-10-09T19:38:15;22.94;58.53
69464;DHT22;56665;41.106;16.688;2023-10-09T19:41:20;22.91;58.19
69464;DHT22;56665;41.106;16.688;2023-10-09T19:44:24;22.86;58.26